createdAt,value
2023-04-07T00:01:32.590Z,6.30
2023-04-07T00:03:59.739Z,6.30
2023-04-07T00:06:27.407Z,6.30
2023-04-07T00:08:54.205Z,6.20
2023-04-07T00:11:21.119Z,6.30
2023-04-07T00:13:47.916Z,6.30
2023-04-07T00:16:14.697Z,6.30
2023-04-07T00:18:41.536Z,6.40
2023-04-07T00:21:08.198Z,6.40
2023-04-07T00:23:34.982Z,6.50
2023-04-07T00:26:01.735Z,6.50
2023-04-07T00:28:28.353Z,6.50
2023-04-07T00:30:55.082Z,6.60
2023-04-07T00:33:21.814Z,6.60
2023-04-07T00:35:48.512Z,6.60
2023-04-07T00:38:15.274Z,6.70
2023-04-07T00:40:41.925Z,6.70
2023-04-07T00:43:08.665Z,6.60
2023-04-07T00:45:36.691Z,6.60
2023-04-07T00:48:04.179Z,6.60
2023-04-07T00:50:31.226Z,6.60
2023-04-07T00:52:58.172Z,6.60
2023-04-07T00:55:24.909Z,6.60
2023-04-07T00:57:52.053Z,6.60
2023-04-07T01:00:19.346Z,6.60
2023-04-07T01:02:58.939Z,6.50
2023-04-07T01:05:46.318Z,6.50
2023-04-07T01:08:43.671Z,6.50
2023-04-07T01:11:37.155Z,6.40
2023-04-07T01:14:04.479Z,6.40
2023-04-07T01:16:42.875Z,6.30
2023-04-07T01:19:33.610Z,6.30
2023-04-07T01:22:00.951Z,6.40
2023-04-07T01:24:58.469Z,6.40
2023-04-07T01:27:34.002Z,6.30
2023-04-07T01:30:03.434Z,6.30
2023-04-07T01:32:31.573Z,6.20
2023-04-07T01:34:59.757Z,6.20
2023-04-07T01:37:28.407Z,6.20
2023-04-07T01:39:55.366Z,6.20
2023-04-07T01:42:22.623Z,6.10
2023-04-07T01:44:51.145Z,6.10
2023-04-07T01:47:18.593Z,6.00
2023-04-07T01:49:46.984Z,6.00
2023-04-07T01:52:14.360Z,5.90
2023-04-07T01:54:41.215Z,6.00
2023-04-07T01:57:07.864Z,6.00
2023-04-07T01:59:34.548Z,5.90
2023-04-07T02:02:01.579Z,5.80
2023-04-07T02:04:32.575Z,5.80
2023-04-07T02:07:06.183Z,5.80
2023-04-07T02:09:34.521Z,5.70
2023-04-07T02:12:04.861Z,5.80
2023-04-07T02:14:32.550Z,5.80
2023-04-07T02:17:01.380Z,5.70
2023-04-07T02:19:30.340Z,5.60
2023-04-07T02:21:57.525Z,5.60
2023-04-07T02:24:24.221Z,5.50
2023-04-07T02:26:51.146Z,5.50
2023-04-07T02:29:17.817Z,5.40
2023-04-07T02:31:44.545Z,5.40
2023-04-07T02:34:11.292Z,5.30
2023-04-07T02:36:38.104Z,5.20
2023-04-07T02:39:04.860Z,5.20
2023-04-07T02:41:31.607Z,5.20
2023-04-07T02:43:58.527Z,5.20
2023-04-07T02:46:25.445Z,5.20
2023-04-07T02:48:52.345Z,5.20
2023-04-07T02:51:19.120Z,5.20
2023-04-07T02:53:45.804Z,5.20
2023-04-07T02:56:12.478Z,5.20
2023-04-07T02:58:39.231Z,5.20
2023-04-07T03:01:06.274Z,5.20
2023-04-07T03:03:33.061Z,5.30
2023-04-07T03:05:59.787Z,5.40
2023-04-07T03:08:27.284Z,5.20
2023-04-07T03:10:54.014Z,5.10
2023-04-07T03:13:21.531Z,5.00
2023-04-07T03:15:48.225Z,5.00
2023-04-07T03:18:14.938Z,5.00
2023-04-07T03:20:42.345Z,5.00
2023-04-07T03:23:09.132Z,5.00
2023-04-07T03:25:35.969Z,5.00
2023-04-07T03:28:02.670Z,5.00
2023-04-07T03:30:29.349Z,5.00
2023-04-07T03:32:56.285Z,5.00
2023-04-07T03:35:22.954Z,4.90
2023-04-07T03:37:49.915Z,4.90
2023-04-07T03:40:16.740Z,4.90
2023-04-07T03:42:43.571Z,4.90
2023-04-07T03:45:10.469Z,4.80
2023-04-07T03:47:37.263Z,4.90
2023-04-07T03:50:04.190Z,4.90
2023-04-07T03:52:30.935Z,4.80
2023-04-07T03:54:57.599Z,4.80
2023-04-07T03:57:24.288Z,4.80
2023-04-07T03:59:51.336Z,4.70
2023-04-07T04:02:18.826Z,4.70
2023-04-07T04:04:45.912Z,4.70
2023-04-07T04:07:12.643Z,4.70
2023-04-07T04:09:39.330Z,4.70
2023-04-07T04:12:06.586Z,4.70
2023-04-07T04:14:33.241Z,4.70
2023-04-07T04:16:59.912Z,4.60
2023-04-07T04:19:26.624Z,4.60
2023-04-07T04:21:53.256Z,4.60
2023-04-07T04:24:19.899Z,4.50
2023-04-07T04:26:46.632Z,4.60
2023-04-07T04:29:13.305Z,4.60
2023-04-07T04:31:39.985Z,4.60
2023-04-07T04:34:06.862Z,4.70
2023-04-07T04:36:33.531Z,4.70
2023-04-07T04:39:00.330Z,4.70
2023-04-07T04:41:27.144Z,4.80
2023-04-07T04:43:53.821Z,4.70
2023-04-07T04:46:20.530Z,4.60
2023-04-07T04:48:47.187Z,4.60
2023-04-07T04:51:13.999Z,4.60
2023-04-07T04:53:40.702Z,4.50
2023-04-07T04:56:07.702Z,4.50
2023-04-07T04:58:35.420Z,4.50
2023-04-07T05:01:02.227Z,4.50
2023-04-07T05:03:29.297Z,4.50
2023-04-07T05:05:56.197Z,4.50
2023-04-07T05:08:23.014Z,4.50
2023-04-07T05:10:49.675Z,4.50
2023-04-07T05:13:16.471Z,4.50
2023-04-07T05:15:43.174Z,4.50
2023-04-07T05:18:09.832Z,4.50
2023-04-07T05:20:36.528Z,4.50
2023-04-07T05:23:04.216Z,4.50
2023-04-07T05:25:31.216Z,4.50
2023-04-07T05:27:59.169Z,4.40
2023-04-07T05:30:25.857Z,4.50
2023-04-07T05:32:53.584Z,4.50
2023-04-07T05:35:20.817Z,4.50
2023-04-07T05:37:47.556Z,4.50
2023-04-07T05:40:14.492Z,4.50
2023-04-07T05:42:41.772Z,4.50
2023-04-07T05:45:09.659Z,4.50
2023-04-07T05:47:36.602Z,4.50
2023-04-07T05:50:03.421Z,4.60
2023-04-07T05:52:30.244Z,4.70
2023-04-07T05:54:56.889Z,4.60
2023-04-07T05:57:23.526Z,4.70
2023-04-07T05:59:50.238Z,4.80
2023-04-07T06:02:16.984Z,4.70
2023-04-07T06:04:43.792Z,4.70
2023-04-07T06:07:10.619Z,4.70
2023-04-07T06:09:37.298Z,4.80
2023-04-07T06:12:06.728Z,4.80
2023-04-07T06:14:33.381Z,4.80
2023-04-07T06:17:00.728Z,4.80
2023-04-07T06:19:27.800Z,4.90
2023-04-07T06:21:54.754Z,4.90
2023-04-07T06:24:25.215Z,4.80
2023-04-07T06:26:55.079Z,4.90
2023-04-07T06:29:21.845Z,4.90
2023-04-07T06:31:48.512Z,4.90
2023-04-07T06:34:15.225Z,4.90
2023-04-07T06:36:41.983Z,4.80
2023-04-07T06:39:09.044Z,4.80
2023-04-07T06:41:36.655Z,5.00
2023-04-07T06:44:03.364Z,4.90
2023-04-07T06:46:30.241Z,4.90
2023-04-07T06:48:56.875Z,4.90
2023-04-07T06:51:25.811Z,4.90
2023-04-07T06:53:52.435Z,4.80
2023-04-07T06:56:19.078Z,4.80
2023-04-07T06:58:47.092Z,4.90
2023-04-07T07:01:13.859Z,5.00
2023-04-07T07:03:40.774Z,5.10
2023-04-07T07:06:07.506Z,5.10
2023-04-07T07:08:34.210Z,5.10
2023-04-07T07:11:01.018Z,5.20
2023-04-07T07:13:28.605Z,5.30
2023-04-07T07:15:55.712Z,5.30
2023-04-07T07:18:22.418Z,5.30
2023-04-07T07:20:49.113Z,5.30
2023-04-07T07:23:15.762Z,5.30
2023-04-07T07:25:42.720Z,5.40
2023-04-07T07:28:09.683Z,5.40
2023-04-07T07:30:36.710Z,5.40
2023-04-07T07:33:03.552Z,5.50
2023-04-07T07:35:32.569Z,5.60
2023-04-07T07:37:59.251Z,5.80
2023-04-07T07:40:26.094Z,5.90
2023-04-07T07:42:52.777Z,5.90
2023-04-07T07:45:19.667Z,6.20
2023-04-07T07:47:46.547Z,6.30
2023-04-07T07:50:13.229Z,6.50
2023-04-07T07:52:39.846Z,6.80
2023-04-07T07:55:06.710Z,6.90
2023-04-07T07:57:33.397Z,7.40
2023-04-07T08:00:00.950Z,7.50
2023-04-07T08:02:31.592Z,7.60
2023-04-07T08:04:58.591Z,7.20
2023-04-07T08:07:25.718Z,7.50
2023-04-07T08:09:52.400Z,7.80
2023-04-07T08:12:19.180Z,8.00
2023-04-07T08:14:46.171Z,7.80
2023-04-07T08:17:12.854Z,7.90
2023-04-07T08:19:39.604Z,7.80
2023-04-07T08:22:06.397Z,8.00
2023-04-07T08:24:33.035Z,8.00
2023-04-07T08:27:01.810Z,8.30
2023-04-07T08:29:30.006Z,8.70
2023-04-07T08:31:57.941Z,8.90
2023-04-07T08:34:24.633Z,9.30
2023-04-07T08:36:51.540Z,9.80
2023-04-07T08:39:18.271Z,9.50
2023-04-07T08:41:45.293Z,9.80
2023-04-07T08:44:14.589Z,10.10
2023-04-07T08:46:41.677Z,10.40
2023-04-07T08:49:14.053Z,10.30
2023-04-07T08:51:51.744Z,10.60
2023-04-07T08:54:19.138Z,10.40
2023-04-07T08:56:46.718Z,10.10
2023-04-07T08:59:15.799Z,10.60
2023-04-07T09:01:42.700Z,10.80
2023-04-07T09:04:12.867Z,10.90
2023-04-07T09:06:39.736Z,10.80
2023-04-07T09:09:06.395Z,11.30
2023-04-07T09:11:36.330Z,11.30
2023-04-07T09:14:03.146Z,11.30
2023-04-07T09:16:31.153Z,11.30
2023-04-07T09:18:58.535Z,11.40
2023-04-07T09:21:25.522Z,11.70
2023-04-07T09:23:53.127Z,12.00
2023-04-07T09:26:22.765Z,11.90
2023-04-07T09:29:01.595Z,12.10
2023-04-07T09:31:51.916Z,12.60
2023-04-07T09:34:28.090Z,12.40
2023-04-07T09:36:56.701Z,12.50
2023-04-07T09:39:24.143Z,12.90
2023-04-07T09:41:51.974Z,12.60
2023-04-07T09:44:19.514Z,12.30
2023-04-07T09:46:57.329Z,12.50
2023-04-07T09:49:25.391Z,11.90
2023-04-07T09:51:59.820Z,12.30
2023-04-07T09:54:37.722Z,12.80
2023-04-07T09:57:06.325Z,12.40
2023-04-07T09:59:35.512Z,12.50
2023-04-07T10:02:03.176Z,12.20
2023-04-07T10:04:30.740Z,11.60
2023-04-07T10:06:59.025Z,11.20
2023-04-07T10:09:29.692Z,11.40
2023-04-07T10:11:59.616Z,11.70
2023-04-07T10:14:32.128Z,11.50
2023-04-07T10:17:04.067Z,11.30
2023-04-07T10:19:35.969Z,11.80
2023-04-07T10:22:05.352Z,11.70
2023-04-07T10:24:54.551Z,11.40
2023-04-07T10:27:27.701Z,11.50
2023-04-07T10:29:55.271Z,11.30
2023-04-07T10:32:21.970Z,11.30
2023-04-07T10:34:55.407Z,11.20
2023-04-07T10:37:22.975Z,11.50
2023-04-07T10:39:51.476Z,11.60
2023-04-07T10:42:39.656Z,11.60
2023-04-07T10:45:08.853Z,11.60
2023-04-07T10:47:56.505Z,11.70
2023-04-07T10:50:24.053Z,11.80
2023-04-07T10:53:13.206Z,11.60
2023-04-07T10:55:47.113Z,11.90
2023-04-07T10:58:21.181Z,12.20
2023-04-07T11:01:00.501Z,12.30
2023-04-07T11:03:30.533Z,11.40
2023-04-07T11:06:13.752Z,11.60
2023-04-07T11:08:42.210Z,11.40
2023-04-07T11:11:11.140Z,11.40
2023-04-07T11:13:48.874Z,11.70
2023-04-07T11:16:34.349Z,11.60
2023-04-07T11:19:01.037Z,11.20
2023-04-07T11:21:27.890Z,11.30
2023-04-07T11:23:54.633Z,11.20
2023-04-07T11:26:21.569Z,10.90
2023-04-07T11:28:53.426Z,10.80
2023-04-07T11:31:28.038Z,10.70
2023-04-07T11:33:55.556Z,10.90
2023-04-07T11:36:34.021Z,10.80
2023-04-07T11:39:02.149Z,10.20
2023-04-07T11:41:30.954Z,10.40
2023-04-07T11:44:26.311Z,10.50
2023-04-07T11:47:00.458Z,10.70
2023-04-07T11:49:28.606Z,10.50
2023-04-07T11:52:03.590Z,10.80
2023-04-07T11:54:49.949Z,11.00
2023-04-07T11:57:26.422Z,11.30
2023-04-07T12:00:09.213Z,11.20
2023-04-07T12:02:37.001Z,11.40
2023-04-07T12:05:04.745Z,11.60
2023-04-07T12:07:31.693Z,12.10
2023-04-07T12:09:58.363Z,12.10
2023-04-07T12:12:29.151Z,12.20
2023-04-07T12:14:56.930Z,12.00
2023-04-07T12:17:26.668Z,12.40
2023-04-07T12:19:53.610Z,12.70
2023-04-07T12:22:22.277Z,12.50
2023-04-07T12:24:48.991Z,12.10
2023-04-07T12:27:15.786Z,11.70
2023-04-07T12:29:43.766Z,11.70
2023-04-07T12:32:10.618Z,11.30
2023-04-07T12:34:37.579Z,11.60
2023-04-07T12:37:04.193Z,11.50
2023-04-07T12:39:31.385Z,11.50
2023-04-07T12:41:58.129Z,11.50
2023-04-07T12:44:24.958Z,11.50
2023-04-07T12:46:52.111Z,11.70
2023-04-07T12:49:18.852Z,11.70
2023-04-07T12:51:45.937Z,11.60
2023-04-07T12:54:12.598Z,11.50
2023-04-07T12:56:41.773Z,11.50
2023-04-07T12:59:09.164Z,11.20
2023-04-07T13:01:37.447Z,11.40
2023-04-07T13:04:04.392Z,11.70
2023-04-07T13:06:32.183Z,11.80
2023-04-07T13:08:58.855Z,11.70
2023-04-07T13:11:25.670Z,11.60
2023-04-07T13:13:53.206Z,11.90
2023-04-07T13:16:21.582Z,12.10
2023-04-07T13:18:48.247Z,12.10
2023-04-07T13:23:44.493Z,12.00
2023-04-07T13:26:11.664Z,11.70
2023-04-07T13:28:38.708Z,11.70
2023-04-07T13:31:05.797Z,12.20
2023-04-07T13:33:32.499Z,12.00
2023-04-07T13:36:00.554Z,12.20
2023-04-07T13:38:27.275Z,12.20
2023-04-07T13:40:53.962Z,11.70
2023-04-07T13:43:20.724Z,11.30
2023-04-07T13:45:48.496Z,11.20
2023-04-07T13:48:15.780Z,10.90
2023-04-07T13:50:42.465Z,11.00
2023-04-07T13:53:09.111Z,11.10
2023-04-07T13:55:35.782Z,11.00
2023-04-07T13:58:02.514Z,11.20
2023-04-07T14:00:29.305Z,11.20
2023-04-07T14:02:56.263Z,11.30
2023-04-07T14:05:25.816Z,11.40
2023-04-07T14:07:52.580Z,11.50
2023-04-07T14:10:20.189Z,11.50
2023-04-07T14:12:47.128Z,11.40
2023-04-07T14:15:13.771Z,11.60
2023-04-07T14:17:40.411Z,11.40
2023-04-07T14:20:09.258Z,11.60
2023-04-07T14:22:35.978Z,11.40
2023-04-07T14:25:03.380Z,11.50
2023-04-07T14:27:31.330Z,11.60
2023-04-07T14:29:59.527Z,11.60
2023-04-07T14:32:29.392Z,11.50
2023-04-07T14:34:56.539Z,11.60
2023-04-07T14:37:26.381Z,11.50
2023-04-07T14:40:01.863Z,11.60
2023-04-07T14:42:29.858Z,11.60
2023-04-07T14:44:56.672Z,11.70
2023-04-07T14:47:24.651Z,11.60
2023-04-07T14:49:53.400Z,11.40
2023-04-07T14:52:21.709Z,11.20
2023-04-07T14:54:48.623Z,11.20
2023-04-07T14:57:16.611Z,11.00
2023-04-07T14:59:43.829Z,11.00
2023-04-07T15:02:10.744Z,11.20
2023-04-07T15:04:37.598Z,11.20
2023-04-07T15:07:05.260Z,11.20
2023-04-07T15:09:32.019Z,11.20
2023-04-07T15:12:00.564Z,11.30
2023-04-07T15:14:27.681Z,11.30
2023-04-07T15:16:54.852Z,11.40
2023-04-07T15:19:21.536Z,11.20
2023-04-07T15:21:48.227Z,11.00
2023-04-07T15:24:16.398Z,11.10
2023-04-07T15:26:43.773Z,11.00
2023-04-07T15:29:10.641Z,11.00
2023-04-07T15:31:38.051Z,11.00
2023-04-07T15:34:05.375Z,10.90
2023-04-07T15:36:32.135Z,10.70
2023-04-07T15:39:04.432Z,10.80
2023-04-07T15:41:31.643Z,10.80
2023-04-07T15:44:00.929Z,10.90
2023-04-07T15:46:27.736Z,10.90
2023-04-07T15:48:54.735Z,10.80
2023-04-07T15:51:21.544Z,10.70
2023-04-07T15:53:48.490Z,10.70
2023-04-07T15:56:15.313Z,10.80
2023-04-07T15:58:42.092Z,10.70
2023-04-07T16:01:09.593Z,10.70
2023-04-07T16:03:36.576Z,10.70
2023-04-07T16:06:03.571Z,10.70
2023-04-07T16:08:30.202Z,10.70
2023-04-07T16:10:56.926Z,10.80
2023-04-07T16:13:23.624Z,10.70
2023-04-07T16:15:50.477Z,10.50
2023-04-07T16:18:17.164Z,10.50
2023-04-07T16:20:43.837Z,10.40
2023-04-07T16:23:10.696Z,10.30
2023-04-07T16:25:37.425Z,10.20
2023-04-07T16:28:04.332Z,10.20
2023-04-07T16:30:31.145Z,10.30
2023-04-07T16:33:00.130Z,10.30
2023-04-07T16:35:27.041Z,10.30
2023-04-07T16:37:54.800Z,10.40
2023-04-07T16:40:21.522Z,10.30
2023-04-07T16:42:48.215Z,10.20
2023-04-07T16:45:14.940Z,10.20
2023-04-07T16:47:44.326Z,10.30
2023-04-07T16:50:11.619Z,10.30
2023-04-07T16:52:38.467Z,10.30
2023-04-07T16:55:05.632Z,10.40
2023-04-07T16:57:32.310Z,10.30
2023-04-07T16:59:59.138Z,10.20
2023-04-07T17:02:27.715Z,10.20
2023-04-07T17:04:55.880Z,10.00
2023-04-07T17:07:23.343Z,10.00
2023-04-07T17:09:50.061Z,10.00
2023-04-07T17:12:16.812Z,10.10
2023-04-07T17:14:43.502Z,10.10
2023-04-07T17:17:10.155Z,10.00
2023-04-07T17:19:37.072Z,9.90
2023-04-07T17:22:03.708Z,9.90
2023-04-07T17:24:30.494Z,9.90
2023-04-07T17:26:57.114Z,9.80
2023-04-07T17:29:28.802Z,9.80
2023-04-07T17:31:56.537Z,9.80
2023-04-07T17:34:23.181Z,9.70
2023-04-07T17:36:50.875Z,9.70
2023-04-07T17:39:17.707Z,9.70
2023-04-07T17:41:46.696Z,9.60
2023-04-07T17:44:13.729Z,9.60
2023-04-07T17:46:40.556Z,9.60
2023-04-07T17:49:07.364Z,9.60
2023-04-07T17:51:34.090Z,9.60
2023-04-07T17:54:01.374Z,9.60
2023-04-07T17:56:28.699Z,9.60
2023-04-07T17:58:56.039Z,9.60
2023-04-07T18:01:23.441Z,9.60
2023-04-07T18:03:51.484Z,9.50
2023-04-07T18:06:18.420Z,9.50
2023-04-07T18:08:46.570Z,9.60
2023-04-07T18:11:13.904Z,9.60
2023-04-07T18:13:40.903Z,9.60
2023-04-07T18:16:09.507Z,9.70
2023-04-07T18:18:38.075Z,9.70
2023-04-07T18:21:06.296Z,9.60
2023-04-07T18:23:33.002Z,9.50
2023-04-07T18:26:03.757Z,9.50
2023-04-07T18:28:30.878Z,9.50
2023-04-07T18:31:06.859Z,9.40
2023-04-07T18:33:34.426Z,9.40
2023-04-07T18:36:04.045Z,9.50
2023-04-07T18:38:30.883Z,9.50
2023-04-07T18:40:57.640Z,9.50
2023-04-07T18:43:24.353Z,9.50
2023-04-07T18:45:52.894Z,9.50
2023-04-07T18:48:20.220Z,9.50
2023-04-07T18:50:54.668Z,9.40
2023-04-07T18:53:23.640Z,9.40
2023-04-07T18:55:51.281Z,9.40
2023-04-07T18:58:20.088Z,9.30
2023-04-07T19:00:49.905Z,9.30
2023-04-07T19:03:17.172Z,9.30
2023-04-07T19:05:47.226Z,9.30
2023-04-07T19:08:15.799Z,9.20
2023-04-07T19:10:42.833Z,9.20
2023-04-07T19:13:09.657Z,9.10
2023-04-07T19:15:40.639Z,9.20
2023-04-07T19:18:10.245Z,9.20
2023-04-07T19:20:37.283Z,9.20
2023-04-07T19:23:04.129Z,9.20
2023-04-07T19:25:31.262Z,9.20
2023-04-07T19:27:59.003Z,9.20
2023-04-07T19:30:27.762Z,9.20
2023-04-07T19:32:55.078Z,9.20
2023-04-07T19:35:21.902Z,9.20
2023-04-07T19:37:49.085Z,9.20
2023-04-07T19:40:16.896Z,9.20
2023-04-07T19:42:43.837Z,9.20
2023-04-07T19:45:11.032Z,9.20
2023-04-07T19:47:41.527Z,9.10
2023-04-07T19:50:11.304Z,9.10
2023-04-07T19:52:39.016Z,9.10
2023-04-07T19:55:10.581Z,9.20
2023-04-07T19:57:38.801Z,9.10
2023-04-07T20:00:08.401Z,9.10
2023-04-07T20:02:36.128Z,9.10
2023-04-07T20:05:03.611Z,9.10
2023-04-07T20:07:32.010Z,9.00
2023-04-07T20:09:58.961Z,8.90
2023-04-07T20:12:26.256Z,8.80
2023-04-07T20:14:53.845Z,8.70
2023-04-07T20:17:21.144Z,8.70
2023-04-07T20:19:48.213Z,8.70
2023-04-07T20:22:14.992Z,8.70
2023-04-07T20:24:42.081Z,8.60
2023-04-07T20:27:09.156Z,8.60
2023-04-07T20:29:37.843Z,8.60
2023-04-07T20:32:04.879Z,8.50
2023-04-07T20:34:31.550Z,8.50
2023-04-07T20:36:58.714Z,8.40
2023-04-07T20:39:25.950Z,8.40
2023-04-07T20:41:52.974Z,8.30
2023-04-07T20:44:20.097Z,8.30
2023-04-07T20:46:47.484Z,8.30
2023-04-07T20:49:16.651Z,8.30
2023-04-07T20:51:43.864Z,8.30
2023-04-07T20:54:10.979Z,8.20
2023-04-07T20:56:37.865Z,8.20
2023-04-07T20:59:06.754Z,8.10
2023-04-07T21:01:34.440Z,8.10
2023-04-07T21:04:03.822Z,8.10
2023-04-07T21:06:32.684Z,8.00
2023-04-07T21:08:59.425Z,8.00
2023-04-07T21:11:26.148Z,7.90
2023-04-07T21:13:52.807Z,7.90
2023-04-07T21:16:19.493Z,7.90
2023-04-07T21:18:46.257Z,7.80
2023-04-07T21:21:13.050Z,7.70
2023-04-07T21:23:40.773Z,7.70
2023-04-07T21:26:07.507Z,7.70
2023-04-07T21:28:34.283Z,7.70
2023-04-07T21:31:01.442Z,7.60
2023-04-07T21:33:28.157Z,7.60
2023-04-07T21:35:55.435Z,7.50
2023-04-07T21:38:22.176Z,7.50
2023-04-07T21:40:48.895Z,7.40
2023-04-07T21:43:15.576Z,7.50
2023-04-07T21:45:42.214Z,7.40
2023-04-07T21:48:08.965Z,7.30
2023-04-07T21:50:36.889Z,7.30
2023-04-07T21:53:03.628Z,7.30
2023-04-07T21:55:30.324Z,7.20
2023-04-07T21:57:58.060Z,7.20
2023-04-07T22:00:24.900Z,7.10
2023-04-07T22:02:53.081Z,7.00
2023-04-07T22:05:20.691Z,7.00
2023-04-07T22:07:48.261Z,6.90
2023-04-07T22:10:15.603Z,6.90
2023-04-07T22:12:42.382Z,6.70
2023-04-07T22:15:10.975Z,6.80
2023-04-07T22:17:39.868Z,6.80
2023-04-07T22:20:07.929Z,6.70
2023-04-07T22:22:34.591Z,6.70
2023-04-07T22:25:01.269Z,6.60
2023-04-07T22:27:28.007Z,6.60
2023-04-07T22:29:54.719Z,6.50
2023-04-07T22:32:21.395Z,6.50
2023-04-07T22:34:48.149Z,6.40
2023-04-07T22:37:14.821Z,6.40
2023-04-07T22:39:41.565Z,6.40
2023-04-07T22:42:08.229Z,6.30
2023-04-07T22:44:34.875Z,6.30
2023-04-07T22:47:01.534Z,6.20
2023-04-07T22:49:28.802Z,6.20
2023-04-07T22:51:57.029Z,6.20
2023-04-07T22:54:23.931Z,6.10
2023-04-07T22:56:50.609Z,6.10
2023-04-07T22:59:17.331Z,6.10
2023-04-07T23:01:44.161Z,6.00
2023-04-07T23:04:10.955Z,5.90
2023-04-07T23:06:37.586Z,5.90
2023-04-07T23:09:04.311Z,5.90
2023-04-07T23:11:30.996Z,5.80
2023-04-07T23:13:57.652Z,5.80
2023-04-07T23:16:24.324Z,5.80
2023-04-07T23:18:51.256Z,5.80
2023-04-07T23:21:17.990Z,5.80
2023-04-07T23:23:44.728Z,5.80
2023-04-07T23:26:11.442Z,5.80
2023-04-07T23:28:38.231Z,5.70
2023-04-07T23:31:06.625Z,5.70
2023-04-07T23:33:33.558Z,5.70
2023-04-07T23:36:00.520Z,5.70
2023-04-07T23:38:27.479Z,5.60
2023-04-07T23:40:54.141Z,5.60
2023-04-07T23:43:20.838Z,5.60
2023-04-07T23:45:48.164Z,5.60
2023-04-07T23:48:15.546Z,5.60
2023-04-07T23:50:42.389Z,5.50
2023-04-07T23:53:09.215Z,5.50
2023-04-07T23:55:36.135Z,5.50
2023-04-07T23:58:02.889Z,5.40
